Terminal Aerodrome Forecast
Issued by NWS

Home | Current Version | Previous Version | Text Only | Print | Product List | Glossary On
Versions: 1 2 3 4 5 6 7 8 9 10 11 12 13 14 15 16 17 18 19 20 21
000
FTUS41 KBOX 250909 AAA
TAFBED
TAF AMD
KBED 250909Z 2509/2606 03006KT P6SM VCSH OVC045
     FM251200 VRB03KT P6SM VCSH OVC035
     FM251500 02005KT P6SM OVC010
     FM251900 02004KT 3SM -RA OVC015
     FM252200 VRB03KT P6SM BKN110
     FM260300 00000KT P6SM SCT250=

USA.gov is the U.S. government's official web portal to all federal, state and local government web resources and services.